createdAt,value
2018-02-24T00:02:20.302Z,29.00
2018-02-24T00:04:47.935Z,28.97
2018-02-24T00:07:15.691Z,30.03
2018-02-24T00:09:43.387Z,29.30
2018-02-24T00:12:11.049Z,29.23
2018-02-24T00:14:38.829Z,31.43
2018-02-24T00:17:06.469Z,30.80
2018-02-24T00:19:34.105Z,30.63
2018-02-24T00:22:01.714Z,30.10
2018-02-24T00:24:29.488Z,31.60
2018-02-24T00:26:57.899Z,29.73
2018-02-24T00:29:25.566Z,30.97
2018-02-24T00:31:53.297Z,28.93
2018-02-24T00:34:21.756Z,27.77
2018-02-24T00:36:49.477Z,31.17
2018-02-24T00:39:17.540Z,31.03
2018-02-24T00:41:45.208Z,29.10
2018-02-24T00:44:12.833Z,31.87
2018-02-24T00:46:41.620Z,32.07
2018-02-24T00:49:09.985Z,32.27
2018-02-24T00:51:37.591Z,30.23
2018-02-24T00:54:05.257Z,27.70
2018-02-24T00:56:32.893Z,31.73
2018-02-24T00:59:00.572Z,29.67
2018-02-24T01:01:28.185Z,30.23
2018-02-24T01:03:55.858Z,29.37
2018-02-24T01:06:23.463Z,29.03
2018-02-24T01:08:51.213Z,28.20
2018-02-24T01:11:18.880Z,28.43
2018-02-24T01:13:46.512Z,33.03
2018-02-24T01:16:14.980Z,32.80
2018-02-24T01:18:42.624Z,33.13
2018-02-24T01:21:10.353Z,30.37
2018-02-24T01:23:37.969Z,30.67
2018-02-24T01:26:06.359Z,30.37
2018-02-24T01:28:34.792Z,29.90
2018-02-24T01:31:02.399Z,31.93
2018-02-24T01:33:30.423Z,30.93
2018-02-24T01:35:58.041Z,28.53
2018-02-24T01:38:25.788Z,28.93
2018-02-24T01:40:54.166Z,29.80
2018-02-24T01:43:22.686Z,27.80
2018-02-24T01:45:51.608Z,29.57
2018-02-24T01:48:19.225Z,28.83
2018-02-24T01:50:46.895Z,30.87
2018-02-24T01:53:14.535Z,29.77
2018-02-24T01:55:42.192Z,29.53
2018-02-24T01:58:10.585Z,28.20
2018-02-24T02:00:38.245Z,29.13
2018-02-24T02:03:05.836Z,30.07
2018-02-24T02:05:33.477Z,31.80
2018-02-24T02:08:01.873Z,29.57
2018-02-24T02:10:29.556Z,28.20
2018-02-24T02:12:57.188Z,29.83
2018-02-24T02:15:24.818Z,30.47
2018-02-24T02:17:53.260Z,30.63
2018-02-24T02:20:20.890Z,28.90
2018-02-24T02:22:48.533Z,31.00
2018-02-24T02:25:16.171Z,30.33
2018-02-24T02:27:44.529Z,30.87
2018-02-24T02:30:12.162Z,30.00
2018-02-24T02:32:39.786Z,33.53
2018-02-24T02:35:07.459Z,33.67
2018-02-24T02:37:35.157Z,33.50
2018-02-24T02:40:02.828Z,34.83
2018-02-24T02:42:30.469Z,31.83
2018-02-24T02:44:58.087Z,31.57
2018-02-24T02:47:25.716Z,30.67
2018-02-24T02:49:53.332Z,29.10
2018-02-24T02:52:20.950Z,28.77
2018-02-24T02:54:49.355Z,29.73
2018-02-24T02:57:17.031Z,29.07
2018-02-24T02:59:44.665Z,29.07
2018-02-24T03:02:13.030Z,29.63
2018-02-24T03:04:41.392Z,29.13
2018-02-24T03:07:08.986Z,29.87
2018-02-24T03:09:36.615Z,27.90
2018-02-24T03:12:04.274Z,29.93
2018-02-24T03:14:31.895Z,32.90
2018-02-24T03:16:59.565Z,30.23
2018-02-24T03:19:27.977Z,30.93
2018-02-24T03:21:55.589Z,31.03
2018-02-24T03:24:23.199Z,30.23
2018-02-24T03:26:50.807Z,27.47
2018-02-24T03:29:19.806Z,28.17
2018-02-24T03:31:48.280Z,29.20
2018-02-24T03:34:15.893Z,28.57
2018-02-24T03:36:43.539Z,29.73
2018-02-24T03:39:11.165Z,29.10
2018-02-24T03:41:38.889Z,30.93
2018-02-24T03:44:07.284Z,31.53
2018-02-24T03:46:35.655Z,30.70
2018-02-24T03:49:04.153Z,28.00
2018-02-24T03:51:31.776Z,30.43
2018-02-24T03:53:59.820Z,30.57
2018-02-24T03:56:28.190Z,29.67
2018-02-24T03:58:55.798Z,29.77
2018-02-24T04:01:24.679Z,29.70
2018-02-24T04:03:52.288Z,31.07
2018-02-24T04:06:19.950Z,29.23
2018-02-24T04:08:47.607Z,28.20
2018-02-24T04:11:15.405Z,28.57
2018-02-24T04:13:43.102Z,29.53
2018-02-24T04:16:11.579Z,28.73
2018-02-24T04:18:39.991Z,30.03
2018-02-24T04:21:07.615Z,30.40
2018-02-24T04:23:36.091Z,28.80
2018-02-24T04:26:03.710Z,31.67
2018-02-24T04:28:31.410Z,29.00
2018-02-24T04:30:59.026Z,27.73
2018-02-24T04:33:26.692Z,27.57
2018-02-24T04:35:54.296Z,27.90
2018-02-24T04:38:21.930Z,30.37
2018-02-24T04:40:49.557Z,27.80
2018-02-24T04:43:17.526Z,28.47
2018-02-24T04:45:45.151Z,27.90
2018-02-24T04:48:13.537Z,30.60
2018-02-24T04:50:41.955Z,29.37
2018-02-24T04:53:09.650Z,26.87
2018-02-24T04:55:37.270Z,27.67
2018-02-24T04:58:04.899Z,27.80
2018-02-24T05:00:33.286Z,27.80
2018-02-24T05:03:01.704Z,30.33
2018-02-24T05:05:29.300Z,27.83
2018-02-24T05:07:56.926Z,26.03
2018-02-24T05:10:24.562Z,28.53
2018-02-24T05:12:52.205Z,25.87
2018-02-24T05:15:20.592Z,24.20
2018-02-24T05:17:48.246Z,25.53
2018-02-24T05:20:16.623Z,26.13
2018-02-24T05:22:45.229Z,25.87
2018-02-24T05:25:12.856Z,25.67
2018-02-24T05:27:41.232Z,23.90
2018-02-24T05:30:09.637Z,22.40
2018-02-24T05:32:38.331Z,24.93
2018-02-24T05:35:06.006Z,23.97
2018-02-24T05:37:33.601Z,24.27
2018-02-24T05:40:01.223Z,25.87
2018-02-24T05:42:28.847Z,25.10
2018-02-24T05:44:57.592Z,25.07
2018-02-24T05:47:25.192Z,23.93
2018-02-24T05:49:53.571Z,24.23
2018-02-24T05:52:21.953Z,26.70
2018-02-24T05:54:49.588Z,24.60
2018-02-24T05:57:17.272Z,24.37
2018-02-24T05:59:45.670Z,25.57
2018-02-24T06:02:13.402Z,24.00
2018-02-24T06:04:41.044Z,26.03
2018-02-24T06:07:08.674Z,24.77
2018-02-24T06:09:36.444Z,23.43
2018-02-24T06:12:04.066Z,21.73
2018-02-24T06:14:31.712Z,23.33
2018-02-24T06:17:01.678Z,24.67
2018-02-24T06:19:29.268Z,23.43
2018-02-24T06:21:56.988Z,21.87
2018-02-24T06:24:24.601Z,23.87
2018-02-24T06:26:52.229Z,22.37
2018-02-24T06:29:19.875Z,22.57
2018-02-24T06:31:47.536Z,23.47
2018-02-24T06:34:15.300Z,22.33
2018-02-24T06:36:42.904Z,22.53
2018-02-24T06:39:10.574Z,22.00
2018-02-24T06:41:39.027Z,21.47
2018-02-24T06:44:06.777Z,22.80
2018-02-24T06:46:35.698Z,21.63
2018-02-24T06:49:03.368Z,21.00
2018-02-24T06:51:31.046Z,21.27
2018-02-24T06:53:58.685Z,20.83
2018-02-24T06:56:27.899Z,21.43
2018-02-24T06:58:56.287Z,21.80
2018-02-24T07:01:24.697Z,22.23
2018-02-24T07:03:52.404Z,22.77
2018-02-24T07:06:21.334Z,23.07
2018-02-24T07:08:48.949Z,22.37
2018-02-24T07:11:16.602Z,23.83
2018-02-24T07:13:44.258Z,24.03
2018-02-24T07:16:11.887Z,23.53
2018-02-24T07:18:40.342Z,23.67
2018-02-24T07:21:07.984Z,23.80
2018-02-24T07:23:35.588Z,23.00
2018-02-24T07:26:03.259Z,21.93
2018-02-24T07:28:30.884Z,21.53
2018-02-24T07:30:59.453Z,21.63
2018-02-24T07:33:27.838Z,22.60
2018-02-24T07:35:56.229Z,21.67
2018-02-24T07:38:23.893Z,22.00
2018-02-24T07:40:51.577Z,21.67
2018-02-24T07:43:19.223Z,22.60
2018-02-24T07:45:46.949Z,23.60
2018-02-24T07:48:14.589Z,24.07
2018-02-24T07:50:42.290Z,24.07
2018-02-24T07:53:10.700Z,24.07
2018-02-24T07:55:38.348Z,24.83
2018-02-24T07:58:06.034Z,24.00
2018-02-24T08:00:33.682Z,25.03
2018-02-24T08:03:01.326Z,23.10
2018-02-24T08:05:29.062Z,23.40
2018-02-24T08:07:56.718Z,24.13
2018-02-24T08:10:24.381Z,23.60
2018-02-24T08:12:52.027Z,23.83
2018-02-24T08:15:19.671Z,22.57
2018-02-24T08:17:47.273Z,21.10
2018-02-24T08:20:14.879Z,21.70
2018-02-24T08:22:42.505Z,23.20
2018-02-24T08:25:10.958Z,21.80
2018-02-24T08:27:38.603Z,23.10
2018-02-24T08:30:06.238Z,24.30
2018-02-24T08:32:33.998Z,23.00
2018-02-24T08:35:01.621Z,22.67
2018-02-24T08:37:30.238Z,22.90
2018-02-24T08:39:57.841Z,22.47
2018-02-24T08:42:25.494Z,24.23
2018-02-24T08:44:53.113Z,24.13
2018-02-24T08:47:20.721Z,24.57
2018-02-24T08:49:48.496Z,23.23
2018-02-24T08:52:16.903Z,23.60
2018-02-24T08:54:45.728Z,22.00
2018-02-24T08:57:13.358Z,23.57
2018-02-24T08:59:40.986Z,23.33
2018-02-24T09:02:08.697Z,23.13
2018-02-24T09:04:36.308Z,24.17
2018-02-24T09:07:03.991Z,24.00
2018-02-24T09:09:31.649Z,24.63
2018-02-24T09:11:59.321Z,25.87
2018-02-24T09:14:26.932Z,25.77
2018-02-24T09:16:54.859Z,24.83
2018-02-24T09:19:22.499Z,25.70
2018-02-24T09:21:50.119Z,24.27
2018-02-24T09:24:18.985Z,23.70
2018-02-24T09:26:46.610Z,24.50
2018-02-24T09:29:14.293Z,23.40
2018-02-24T09:31:41.930Z,24.90
2018-02-24T09:34:09.641Z,22.10
2018-02-24T09:36:38.047Z,23.93
2018-02-24T09:39:07.039Z,23.60
2018-02-24T09:41:35.471Z,22.27
2018-02-24T09:44:05.739Z,22.67
2018-02-24T09:46:33.395Z,23.97
2018-02-24T09:49:01.051Z,23.60
2018-02-24T09:51:28.744Z,23.30
2018-02-24T09:53:56.377Z,22.43
2018-02-24T09:56:24.045Z,21.40
2018-02-24T09:58:51.723Z,20.97
2018-02-24T10:01:19.377Z,22.50
2018-02-24T10:03:46.990Z,21.30
2018-02-24T10:06:14.716Z,21.13
2018-02-24T10:08:42.658Z,21.93
2018-02-24T10:11:11.032Z,21.47
2018-02-24T10:13:38.714Z,20.83
2018-02-24T10:16:06.309Z,19.80
2018-02-24T10:18:34.742Z,21.23
2018-02-24T10:21:02.460Z,19.87
2018-02-24T10:23:30.096Z,20.87
2018-02-24T10:25:57.784Z,20.40
2018-02-24T10:28:25.390Z,20.33
2018-02-24T10:30:53.056Z,19.87
2018-02-24T10:33:20.679Z,19.50
2018-02-24T10:35:49.067Z,19.63
2018-02-24T10:38:17.555Z,18.23
2018-02-24T10:40:45.155Z,18.20
2018-02-24T10:43:12.772Z,17.80
2018-02-24T10:45:40.463Z,17.13
2018-02-24T10:48:08.096Z,15.73
2018-02-24T10:50:36.510Z,16.23
2018-02-24T10:53:04.181Z,15.47
2018-02-24T10:55:31.810Z,16.70
2018-02-24T10:57:59.459Z,18.37
2018-02-24T11:00:27.123Z,17.20
2018-02-24T11:02:55.520Z,16.73
2018-02-24T11:05:23.782Z,15.50
2018-02-24T11:07:51.411Z,16.00
2018-02-24T11:10:19.079Z,15.20
2018-02-24T11:12:47.465Z,15.77
2018-02-24T11:15:15.886Z,15.40
2018-02-24T11:17:43.619Z,16.50
2018-02-24T11:20:11.305Z,16.20
2018-02-24T11:22:39.053Z,16.03
2018-02-24T11:25:06.696Z,16.30
2018-02-24T11:27:35.096Z,15.90
2018-02-24T11:30:02.805Z,16.70
2018-02-24T11:32:30.587Z,16.07
2018-02-24T11:34:58.360Z,16.87
2018-02-24T11:37:26.740Z,16.70
2018-02-24T11:39:54.410Z,17.03
2018-02-24T11:42:22.802Z,15.63
2018-02-24T11:44:50.893Z,15.10
2018-02-24T11:47:18.569Z,15.67
2018-02-24T11:49:46.188Z,15.30
2018-02-24T11:52:13.940Z,14.90
2018-02-24T11:54:42.354Z,13.10
2018-02-24T11:57:10.826Z,13.70
2018-02-24T11:59:38.463Z,11.90
2018-02-24T12:02:06.879Z,12.90
2018-02-24T12:04:34.499Z,13.07
2018-02-24T12:07:02.898Z,12.83
2018-02-24T12:09:30.516Z,11.37
2018-02-24T12:11:58.187Z,13.27
2018-02-24T12:14:26.666Z,13.37
2018-02-24T12:16:55.206Z,13.17
2018-02-24T12:19:22.938Z,14.17
2018-02-24T12:21:50.585Z,14.63
2018-02-24T12:24:18.976Z,12.57
2018-02-24T12:26:46.587Z,12.57
2018-02-24T12:29:14.337Z,11.87
2018-02-24T12:31:41.978Z,12.77
2018-02-24T12:34:09.642Z,11.63
2018-02-24T12:36:37.234Z,11.13
2018-02-24T12:39:04.881Z,10.80
2018-02-24T12:41:32.543Z,11.67
2018-02-24T12:44:00.936Z,10.50
2018-02-24T12:46:28.818Z,10.93
2018-02-24T12:48:56.497Z,10.67
2018-02-24T12:51:25.060Z,11.40
2018-02-24T12:53:52.928Z,9.97
2018-02-24T12:56:20.634Z,10.50
2018-02-24T12:58:48.259Z,10.23
2018-02-24T13:01:17.396Z,10.07
2018-02-24T13:03:45.060Z,10.30
2018-02-24T13:06:12.700Z,9.50
2018-02-24T13:08:41.711Z,9.57
2018-02-24T13:11:09.386Z,8.57
2018-02-24T13:13:37.094Z,10.07
2018-02-24T13:16:04.754Z,8.97
2018-02-24T13:18:32.386Z,9.60
2018-02-24T13:21:00.024Z,9.10
2018-02-24T13:23:27.672Z,9.37
2018-02-24T13:25:55.399Z,9.37
2018-02-24T13:28:23.102Z,8.90
2018-02-24T13:30:50.774Z,8.60
2018-02-24T13:33:18.413Z,9.50
2018-02-24T13:35:46.176Z,8.03
2018-02-24T13:38:13.784Z,8.60
2018-02-24T13:40:41.396Z,8.53
2018-02-24T13:43:09.814Z,9.40
2018-02-24T13:45:37.433Z,8.90
2018-02-24T13:48:05.961Z,9.23
2018-02-24T13:50:34.246Z,7.77
2018-02-24T13:53:01.901Z,8.40
2018-02-24T13:55:30.342Z,8.97
2018-02-24T13:57:58.008Z,8.60
2018-02-24T14:00:27.408Z,8.17
2018-02-24T14:02:55.145Z,9.10
2018-02-24T14:05:23.476Z,8.90
2018-02-24T14:07:51.188Z,8.00
2018-02-24T14:10:19.612Z,8.37
2018-02-24T14:12:48.038Z,7.83
2018-02-24T14:15:16.848Z,7.50
2018-02-24T14:17:44.458Z,7.70
2018-02-24T14:20:12.145Z,7.23
2018-02-24T14:22:39.899Z,7.83
2018-02-24T14:25:08.441Z,6.40
2018-02-24T14:27:36.141Z,7.07
2018-02-24T14:30:03.752Z,6.40
2018-02-24T14:32:31.616Z,6.47
2018-02-24T14:34:59.226Z,5.77
2018-02-24T14:37:26.910Z,7.87
2018-02-24T14:39:55.412Z,7.70
2018-02-24T14:42:23.208Z,6.93
2018-02-24T14:44:50.941Z,6.93
2018-02-24T14:47:19.130Z,7.53
2018-02-24T14:49:46.783Z,7.73
2018-02-24T14:52:14.400Z,7.73
2018-02-24T14:54:42.038Z,7.37
2018-02-24T14:57:09.660Z,6.60
2018-02-24T14:59:37.334Z,6.50
2018-02-24T15:02:04.940Z,6.37
2018-02-24T15:04:32.592Z,6.63
2018-02-24T15:07:00.246Z,7.40
2018-02-24T15:09:27.936Z,7.93
2018-02-24T15:11:55.639Z,8.07
2018-02-24T15:14:23.266Z,7.73
2018-02-24T15:16:51.785Z,8.83
2018-02-24T15:19:19.490Z,9.27
2018-02-24T15:21:47.106Z,8.10
2018-02-24T15:24:14.846Z,9.17
2018-02-24T15:26:43.262Z,10.00
2018-02-24T15:29:10.902Z,9.97
2018-02-24T15:31:38.618Z,10.10
2018-02-24T15:34:07.246Z,9.97
2018-02-24T15:36:34.873Z,10.63
2018-02-24T15:39:02.530Z,11.00
2018-02-24T15:41:30.238Z,10.80
2018-02-24T15:43:57.944Z,11.23
2018-02-24T15:46:25.578Z,11.73
2018-02-24T15:48:53.253Z,13.17
2018-02-24T15:51:21.688Z,13.03
2018-02-24T15:53:51.327Z,13.53
2018-02-24T15:56:19.104Z,14.73
2018-02-24T15:58:46.751Z,14.07
2018-02-24T16:01:14.411Z,14.80
2018-02-24T16:03:42.121Z,14.70
2018-02-24T16:06:10.518Z,15.77
2018-02-24T16:08:39.067Z,16.33
2018-02-24T16:11:06.735Z,15.03
2018-02-24T16:13:35.264Z,16.07
2018-02-24T16:16:02.943Z,15.77
2018-02-24T16:18:30.588Z,16.33
2018-02-24T16:20:58.256Z,14.73
2018-02-24T16:23:25.891Z,14.83
2018-02-24T16:25:53.562Z,15.33
2018-02-24T16:28:21.235Z,15.33
2018-02-24T16:30:48.894Z,16.23
2018-02-24T16:33:16.528Z,14.60
2018-02-24T16:35:44.913Z,16.57
2018-02-24T16:38:12.614Z,13.50
2018-02-24T16:40:40.290Z,13.77
2018-02-24T16:43:07.955Z,14.03
2018-02-24T16:45:38.396Z,11.73
2018-02-24T16:48:06.043Z,13.57
2018-02-24T16:50:33.715Z,11.77
2018-02-24T16:53:01.311Z,12.80
2018-02-24T16:55:29.029Z,13.10
2018-02-24T16:57:58.772Z,11.13
2018-02-24T17:00:27.490Z,13.40
2018-02-24T17:02:55.168Z,12.77
2018-02-24T17:05:23.226Z,13.30
2018-02-24T17:07:50.941Z,14.55
2018-02-24T17:10:18.674Z,15.07
2018-02-24T17:12:46.384Z,14.93
2018-02-24T17:15:14.740Z,16.93
2018-02-24T17:17:42.515Z,14.60
2018-02-24T17:20:10.959Z,12.87
2018-02-24T17:22:38.659Z,14.20
2018-02-24T17:25:07.100Z,14.40
2018-02-24T17:27:34.895Z,12.93
2018-02-24T17:30:03.477Z,12.80
2018-02-24T17:32:31.225Z,13.40
2018-02-24T17:34:58.869Z,13.63
2018-02-24T17:37:26.490Z,11.97
2018-02-24T17:39:54.164Z,11.77
2018-02-24T17:42:21.816Z,11.23
2018-02-24T17:44:49.496Z,12.67
2018-02-24T17:47:17.147Z,12.47
2018-02-24T17:49:44.800Z,11.27
2018-02-24T17:52:12.690Z,11.83
2018-02-24T17:54:40.867Z,11.80
2018-02-24T17:57:08.792Z,12.53
2018-02-24T17:59:37.626Z,11.27
2018-02-24T18:02:05.285Z,11.00
2018-02-24T18:04:33.832Z,14.18
2018-02-24T18:07:02.699Z,13.50
2018-02-24T18:09:30.592Z,12.77
2018-02-24T18:11:58.358Z,11.97
2018-02-24T18:14:25.992Z,12.13
2018-02-24T18:16:54.699Z,11.70
2018-02-24T18:19:22.581Z,13.53
2018-02-24T18:21:50.271Z,10.97
2018-02-24T18:24:17.927Z,12.23
2018-02-24T18:26:45.595Z,11.53
2018-02-24T18:29:13.246Z,13.10
2018-02-24T18:31:40.883Z,11.93
2018-02-24T18:34:08.682Z,12.20
2018-02-24T18:36:36.401Z,11.40
2018-02-24T18:39:04.120Z,10.60
2018-02-24T18:41:31.753Z,10.57
2018-02-24T18:43:59.432Z,10.40
2018-02-24T18:46:27.154Z,9.50
2018-02-24T18:48:54.904Z,8.60
2018-02-24T18:51:22.608Z,8.43
2018-02-24T18:53:50.313Z,7.73
2018-02-24T18:56:18.766Z,7.57
2018-02-24T18:58:47.215Z,7.13
2018-02-24T19:01:15.167Z,8.82
2018-02-24T19:03:42.805Z,8.50
2018-02-24T19:06:11.216Z,8.90
2018-02-24T19:08:38.908Z,9.43
2018-02-24T19:11:06.638Z,8.27
2018-02-24T19:13:34.374Z,7.77
2018-02-24T19:16:02.828Z,6.83
2018-02-24T19:18:30.475Z,7.23
2018-02-24T19:20:58.464Z,7.07
2018-02-24T19:23:26.125Z,6.87
2018-02-24T19:25:53.736Z,7.33
2018-02-24T19:28:21.390Z,7.20
2018-02-24T19:30:49.065Z,8.03
2018-02-24T19:33:16.738Z,7.53
2018-02-24T19:35:44.348Z,8.50
2018-02-24T19:38:12.079Z,8.20
2018-02-24T19:40:39.801Z,8.63
2018-02-24T19:43:07.483Z,8.73
2018-02-24T19:45:35.227Z,7.43
2018-02-24T19:48:03.055Z,9.00
2018-02-24T19:50:31.482Z,8.10
2018-02-24T19:52:59.346Z,9.37
2018-02-24T19:55:26.965Z,8.80
2018-02-24T19:57:55.479Z,9.53
2018-02-24T20:00:23.310Z,9.27
2018-02-24T20:02:51.808Z,8.77
2018-02-24T20:05:19.450Z,9.20
2018-02-24T20:07:47.085Z,8.20
2018-02-24T20:10:14.818Z,9.20
2018-02-24T20:12:42.424Z,7.97
2018-02-24T20:15:10.135Z,6.93
2018-02-24T20:17:38.001Z,7.50
2018-02-24T20:20:05.693Z,9.10
2018-02-24T20:22:33.331Z,7.57
2018-02-24T20:25:01.121Z,7.47
2018-02-24T20:27:29.015Z,8.37
2018-02-24T20:29:57.469Z,8.50
2018-02-24T20:32:25.221Z,8.60
2018-02-24T20:34:52.860Z,9.07
2018-02-24T20:37:20.587Z,8.20
2018-02-24T20:39:48.955Z,9.20
2018-02-24T20:42:16.594Z,8.07
2018-02-24T20:44:44.273Z,8.07
2018-02-24T20:47:11.991Z,8.50
2018-02-24T20:49:39.648Z,8.50
2018-02-24T20:52:07.277Z,8.30
2018-02-24T20:54:35.679Z,9.10
2018-02-24T20:57:03.375Z,8.70
2018-02-24T20:59:31.135Z,8.30
2018-02-24T21:01:58.798Z,7.47
2018-02-24T21:04:26.447Z,8.10
2018-02-24T21:06:54.197Z,9.20
2018-02-24T21:09:21.862Z,7.40
2018-02-24T21:11:49.501Z,8.57
2018-02-24T21:14:17.130Z,8.47
2018-02-24T21:16:44.765Z,6.87
2018-02-24T21:19:13.262Z,6.93
2018-02-24T21:21:40.878Z,7.70
2018-02-24T21:24:08.606Z,8.07
2018-02-24T21:26:37.134Z,7.40
2018-02-24T21:29:04.757Z,7.47
2018-02-24T21:31:33.164Z,8.57
2018-02-24T21:34:01.060Z,8.50
2018-02-24T21:36:29.439Z,8.07
2018-02-24T21:38:57.067Z,6.93
2018-02-24T21:41:24.753Z,6.77
2018-02-24T21:43:52.369Z,7.67
2018-02-24T21:46:20.126Z,6.70
2018-02-24T21:48:48.511Z,6.67
2018-02-24T21:51:16.942Z,6.20
2018-02-24T21:53:44.590Z,7.00
2018-02-24T21:56:12.338Z,7.20
2018-02-24T21:58:39.989Z,7.33
2018-02-24T22:01:07.716Z,6.70
2018-02-24T22:03:35.382Z,6.73
2018-02-24T22:06:03.056Z,7.03
2018-02-24T22:08:31.468Z,6.97
2018-02-24T22:10:59.141Z,7.87
2018-02-24T22:13:26.817Z,5.70
2018-02-24T22:15:54.516Z,6.83
2018-02-24T22:18:22.998Z,7.43
2018-02-24T22:20:50.830Z,6.90
2018-02-24T22:23:18.508Z,8.33
2018-02-24T22:25:46.126Z,7.47
2018-02-24T22:28:13.760Z,7.77
2018-02-24T22:30:42.261Z,7.70
2018-02-24T22:33:10.048Z,8.10
2018-02-24T22:35:37.694Z,7.30
2018-02-24T22:38:05.394Z,9.17
2018-02-24T22:40:33.072Z,9.10
2018-02-24T22:43:01.464Z,7.83
2018-02-24T22:45:29.873Z,7.97
2018-02-24T22:48:03.187Z,8.70
2018-02-24T22:50:31.612Z,8.43
2018-02-24T22:53:00.021Z,8.87
2018-02-24T22:55:27.706Z,8.70
2018-02-24T22:57:55.377Z,6.93
2018-02-24T23:00:29.875Z,8.17
2018-02-24T23:02:57.590Z,8.17
2018-02-24T23:05:25.966Z,8.57
2018-02-24T23:07:53.657Z,8.47
2018-02-24T23:10:21.281Z,9.73
2018-02-24T23:12:48.889Z,7.87
2018-02-24T23:15:16.530Z,10.03
2018-02-24T23:17:44.170Z,9.43
2018-02-24T23:20:11.832Z,9.77
2018-02-24T23:22:39.578Z,8.80
2018-02-24T23:25:07.211Z,9.20
2018-02-24T23:27:34.845Z,8.73
2018-02-24T23:30:02.846Z,9.10
2018-02-24T23:32:30.498Z,9.63
2018-02-24T23:34:58.148Z,9.23
2018-02-24T23:37:25.799Z,9.57
2018-02-24T23:39:53.443Z,9.90
2018-02-24T23:42:21.885Z,10.30
2018-02-24T23:44:49.540Z,8.67
2018-02-24T23:47:17.266Z,9.33
2018-02-24T23:49:44.906Z,10.90
2018-02-24T23:52:13.324Z,10.47
2018-02-24T23:54:40.952Z,10.50
2018-02-24T23:57:08.647Z,10.47
2018-02-24T23:59:36.250Z,10.03
